createdAt,value
2023-04-16T00:01:14.815Z,7.63
2023-04-16T00:03:43.837Z,7.73
2023-04-16T00:06:12.782Z,8.33
2023-04-16T00:08:43.323Z,7.57
2023-04-16T00:11:12.088Z,7.80
2023-04-16T00:13:40.426Z,7.53
2023-04-16T00:16:10.442Z,8.57
2023-04-16T00:18:39.505Z,9.57
2023-04-16T00:21:08.673Z,8.40
2023-04-16T00:23:37.174Z,9.30
2023-04-16T00:26:06.297Z,9.30
2023-04-16T00:28:35.064Z,6.90
2023-04-16T00:31:03.733Z,8.60
2023-04-16T00:33:33.708Z,6.43
2023-04-16T00:36:02.414Z,7.60
2023-04-16T00:38:32.638Z,7.00
2023-04-16T00:41:01.140Z,7.13
2023-04-16T00:43:29.542Z,6.97
2023-04-16T00:45:58.747Z,6.37
2023-04-16T00:48:28.550Z,7.50
2023-04-16T00:50:58.497Z,6.53
2023-04-16T00:53:27.442Z,6.53
2023-04-16T00:55:57.476Z,7.10
2023-04-16T00:58:26.577Z,6.20
2023-04-16T01:00:55.034Z,7.00
2023-04-16T01:03:23.665Z,7.83
2023-04-16T01:05:53.008Z,8.00
2023-04-16T01:08:23.356Z,7.00
2023-04-16T01:10:51.615Z,7.13
2023-04-16T01:13:20.014Z,6.67
2023-04-16T01:15:48.345Z,7.57
2023-04-16T01:18:17.503Z,7.37
2023-04-16T01:20:47.563Z,7.57
2023-04-16T01:23:16.096Z,7.80
2023-04-16T01:25:44.401Z,7.77
2023-04-16T01:28:13.008Z,8.30
2023-04-16T01:30:41.584Z,8.67
2023-04-16T01:33:10.334Z,7.60
2023-04-16T01:35:38.741Z,7.10
2023-04-16T01:38:09.484Z,6.83
2023-04-16T01:40:38.387Z,6.43
2023-04-16T01:43:06.817Z,8.07
2023-04-16T01:45:36.059Z,8.07
2023-04-16T01:48:05.450Z,7.93
2023-04-16T01:50:34.279Z,7.60
2023-04-16T01:53:05.259Z,7.10
2023-04-16T01:55:35.368Z,7.53
2023-04-16T01:58:03.701Z,7.40
2023-04-16T02:00:32.098Z,7.53
2023-04-16T02:03:00.873Z,8.27
2023-04-16T02:05:29.332Z,7.33
2023-04-16T02:07:57.573Z,8.10
2023-04-16T02:10:26.199Z,7.13
2023-04-16T02:12:56.622Z,7.27
2023-04-16T02:15:25.468Z,8.70
2023-04-16T02:17:57.147Z,8.07
2023-04-16T02:20:25.739Z,7.80
2023-04-16T02:22:54.208Z,7.30
2023-04-16T02:25:23.236Z,7.03
2023-04-16T02:27:51.545Z,7.27
2023-04-16T02:30:21.460Z,8.17
2023-04-16T02:32:49.854Z,7.87
2023-04-16T02:35:18.392Z,7.17
2023-04-16T02:37:46.843Z,6.97
2023-04-16T02:40:15.709Z,7.20
2023-04-16T02:42:44.241Z,7.33
2023-04-16T02:45:13.492Z,8.40
2023-04-16T02:47:43.482Z,8.20
2023-04-16T02:50:13.067Z,7.50
2023-04-16T02:52:41.513Z,8.60
2023-04-16T02:55:11.645Z,8.40
2023-04-16T02:57:40.166Z,9.87
2023-04-16T03:00:10.237Z,8.63
2023-04-16T03:02:38.843Z,7.03
2023-04-16T03:05:09.826Z,7.27
2023-04-16T03:07:39.507Z,7.27
2023-04-16T03:10:10.338Z,6.83
2023-04-16T03:12:39.357Z,7.10
2023-04-16T03:15:08.887Z,7.07
2023-04-16T03:17:37.326Z,7.47
2023-04-16T03:20:06.875Z,7.10
2023-04-16T03:22:37.088Z,6.33
2023-04-16T03:25:06.264Z,6.67
2023-04-16T03:27:35.020Z,6.40
2023-04-16T03:30:04.847Z,6.70
2023-04-16T03:32:33.176Z,7.70
2023-04-16T03:35:02.088Z,7.97
2023-04-16T03:37:30.810Z,7.37
2023-04-16T03:40:00.793Z,7.30
2023-04-16T03:42:29.433Z,6.80
2023-04-16T03:44:57.755Z,6.33
2023-04-16T03:47:26.219Z,7.90
2023-04-16T03:49:54.599Z,7.70
2023-04-16T03:52:23.015Z,7.60
2023-04-16T03:54:51.560Z,6.67
2023-04-16T03:57:21.265Z,8.03
2023-04-16T03:59:49.583Z,7.70
2023-04-16T04:02:17.991Z,7.57
2023-04-16T04:04:46.562Z,7.30
2023-04-16T04:07:14.910Z,7.03
2023-04-16T04:09:43.249Z,7.70
2023-04-16T04:12:11.793Z,7.03
2023-04-16T04:14:41.670Z,6.40
2023-04-16T04:17:10.553Z,6.97
2023-04-16T04:19:42.343Z,7.00
2023-04-16T04:22:15.832Z,7.93
2023-04-16T04:24:44.141Z,6.30
2023-04-16T04:27:12.474Z,6.03
2023-04-16T04:29:42.309Z,6.50
2023-04-16T04:32:10.575Z,6.20
2023-04-16T04:34:38.857Z,5.90
2023-04-16T04:37:07.376Z,6.70
2023-04-16T04:39:35.782Z,7.73
2023-04-16T04:42:05.630Z,8.77
2023-04-16T04:44:34.464Z,7.43
2023-04-16T04:47:04.665Z,7.40
2023-04-16T04:49:33.652Z,6.73
2023-04-16T04:52:02.938Z,7.73
2023-04-16T04:54:33.325Z,8.60
2023-04-16T04:57:01.783Z,8.03
2023-04-16T04:59:30.409Z,6.80
2023-04-16T05:01:59.304Z,6.33
2023-04-16T05:04:29.154Z,6.47
2023-04-16T05:06:57.817Z,5.60
2023-04-16T05:09:26.699Z,7.23
2023-04-16T05:11:55.452Z,5.50
2023-04-16T05:14:24.014Z,5.20
2023-04-16T05:16:52.426Z,6.40
2023-04-16T05:19:21.504Z,5.50
2023-04-16T05:21:51.533Z,5.50
2023-04-16T05:24:19.991Z,6.10
2023-04-16T05:26:48.405Z,5.90
2023-04-16T05:29:16.765Z,6.00
2023-04-16T05:31:45.155Z,5.90
2023-04-16T05:34:13.688Z,5.67
2023-04-16T05:36:42.212Z,5.43
2023-04-16T05:39:12.169Z,4.90
2023-04-16T05:41:40.660Z,5.40
2023-04-16T05:44:08.963Z,6.53
2023-04-16T05:46:37.457Z,5.83
2023-04-16T05:49:05.861Z,5.60
2023-04-16T05:51:34.239Z,5.70
2023-04-16T05:54:02.656Z,6.27
2023-04-16T05:56:32.573Z,5.57
2023-04-16T05:59:00.850Z,6.03
2023-04-16T06:01:29.227Z,6.73
2023-04-16T06:03:57.782Z,7.30
2023-04-16T06:06:27.503Z,5.90
2023-04-16T06:08:55.810Z,6.37
2023-04-16T06:11:24.179Z,6.63
2023-04-16T06:13:54.092Z,6.30
2023-04-16T06:16:22.406Z,7.70
2023-04-16T06:18:50.772Z,6.77
2023-04-16T06:21:19.308Z,8.27
2023-04-16T06:23:47.880Z,7.57
2023-04-16T06:26:16.166Z,7.90
2023-04-16T06:28:44.514Z,7.67
2023-04-16T06:31:14.307Z,9.33
2023-04-16T06:33:42.744Z,8.27
2023-04-16T06:36:11.605Z,7.90
2023-04-16T06:38:40.068Z,10.50
2023-04-16T06:41:08.430Z,8.20
2023-04-16T06:43:36.764Z,6.40
2023-04-16T06:46:05.610Z,6.43
2023-04-16T06:48:35.518Z,5.40
2023-04-16T06:51:03.982Z,6.50
2023-04-16T06:53:32.506Z,5.87
2023-04-16T06:56:01.083Z,5.17
2023-04-16T06:58:29.981Z,5.40
2023-04-16T07:00:58.432Z,4.80
2023-04-16T07:03:27.081Z,6.50
2023-04-16T07:05:57.944Z,6.57
2023-04-16T07:08:26.368Z,7.13
2023-04-16T07:10:55.407Z,7.13
2023-04-16T07:13:24.114Z,6.77
2023-04-16T07:15:52.735Z,7.43
2023-04-16T07:18:21.737Z,5.83
2023-04-16T07:20:50.056Z,7.23
2023-04-16T07:23:19.823Z,6.43
2023-04-16T07:25:48.101Z,7.27
2023-04-16T07:28:17.751Z,8.80
2023-04-16T07:30:46.520Z,6.73
2023-04-16T07:33:15.023Z,6.50
2023-04-16T07:35:43.319Z,6.90
2023-04-16T07:38:11.612Z,5.80
2023-04-16T07:40:41.492Z,6.20
2023-04-16T07:43:10.094Z,7.53
2023-04-16T07:45:38.406Z,6.80
2023-04-16T07:48:07.183Z,7.73
2023-04-16T07:50:35.720Z,7.80
2023-04-16T07:53:04.058Z,7.57
2023-04-16T07:55:32.352Z,7.53
2023-04-16T07:58:02.725Z,7.57
2023-04-16T08:00:31.653Z,6.77
2023-04-16T08:03:00.435Z,7.10
2023-04-16T08:05:29.110Z,7.77
2023-04-16T08:07:57.593Z,6.43
2023-04-16T08:10:25.939Z,6.83
2023-04-16T08:12:54.242Z,6.83
2023-04-16T08:15:23.998Z,5.97
2023-04-16T08:17:52.298Z,6.10
2023-04-16T08:20:20.795Z,6.33
2023-04-16T08:22:50.149Z,5.97
2023-04-16T08:25:18.657Z,6.00
2023-04-16T08:27:46.991Z,5.80
2023-04-16T08:30:16.452Z,5.60
2023-04-16T08:32:48.691Z,5.47
2023-04-16T08:35:18.614Z,6.20
2023-04-16T08:37:46.947Z,5.57
2023-04-16T08:40:15.370Z,5.80
2023-04-16T08:42:50.379Z,5.87
2023-04-16T08:45:19.552Z,5.60
2023-04-16T08:48:00.441Z,6.03
2023-04-16T08:50:29.169Z,5.10
2023-04-16T08:53:00.985Z,5.70
2023-04-16T08:55:37.779Z,6.20
2023-04-16T08:58:10.950Z,5.00
2023-04-16T09:00:41.108Z,5.37
2023-04-16T09:03:11.461Z,5.43
2023-04-16T09:05:40.622Z,6.27
2023-04-16T09:08:09.005Z,6.03
2023-04-16T09:10:37.501Z,5.20
2023-04-16T09:13:06.026Z,5.20
2023-04-16T09:15:35.549Z,6.67
2023-04-16T09:18:03.937Z,6.10
2023-04-16T09:20:33.667Z,6.47
2023-04-16T09:23:02.082Z,6.63
2023-04-16T09:25:35.002Z,6.87
2023-04-16T09:28:03.274Z,7.97
2023-04-16T09:30:31.572Z,6.67
2023-04-16T09:33:16.736Z,7.50
2023-04-16T09:35:50.377Z,6.50
2023-04-16T09:38:18.934Z,6.67
2023-04-16T09:40:47.681Z,5.87
2023-04-16T09:43:17.870Z,6.30
2023-04-16T09:45:52.970Z,5.97
2023-04-16T09:48:31.268Z,6.03
2023-04-16T09:51:01.383Z,6.27
2023-04-16T09:53:31.010Z,5.60
2023-04-16T09:56:00.129Z,6.07
2023-04-16T09:58:29.219Z,6.47
2023-04-16T10:00:58.877Z,5.70
2023-04-16T10:03:32.806Z,5.80
2023-04-16T10:06:08.998Z,5.63
2023-04-16T10:08:37.402Z,6.50
2023-04-16T10:11:05.992Z,6.20
2023-04-16T10:13:34.452Z,6.03
2023-04-16T10:16:04.583Z,6.40
2023-04-16T10:18:33.460Z,6.00
2023-04-16T10:21:03.971Z,5.60
2023-04-16T10:23:32.411Z,6.43
2023-04-16T10:26:01.817Z,7.10
2023-04-16T10:28:30.420Z,6.30
2023-04-16T10:31:00.024Z,5.87
2023-04-16T10:33:30.400Z,6.47
2023-04-16T10:36:14.368Z,14.50
2023-04-16T10:38:46.258Z,9.07
2023-04-16T10:41:14.911Z,6.60
2023-04-16T10:43:45.329Z,6.27
2023-04-16T10:46:21.272Z,6.40
2023-04-16T10:48:50.909Z,7.57
2023-04-16T10:51:32.742Z,7.93
2023-04-16T10:54:05.606Z,6.93
2023-04-16T10:56:35.206Z,6.60
2023-04-16T10:59:06.429Z,6.43
2023-04-16T11:01:36.449Z,6.30
2023-04-16T11:04:29.713Z,7.20
2023-04-16T11:07:08.280Z,6.13
2023-04-16T11:09:48.277Z,5.87
2023-04-16T11:12:18.691Z,27.70
2023-04-16T11:14:49.768Z,9.20
2023-04-16T11:17:18.683Z,40.40
2023-04-16T11:19:47.717Z,33.83
2023-04-16T11:22:19.094Z,6.20
2023-04-16T11:24:48.640Z,19.47
2023-04-16T11:27:17.138Z,9.03
2023-04-16T11:29:47.564Z,5.70
2023-04-16T11:32:23.034Z,5.80
2023-04-16T11:34:51.529Z,6.53
2023-04-16T11:37:23.892Z,5.90
2023-04-16T11:39:53.299Z,6.43
2023-04-16T11:42:23.995Z,6.10
2023-04-16T11:44:55.924Z,6.70
2023-04-16T11:47:25.157Z,6.47
2023-04-16T11:49:53.899Z,7.03
2023-04-16T11:52:31.733Z,6.27
2023-04-16T11:55:01.006Z,5.80
2023-04-16T11:57:30.767Z,5.90
2023-04-16T12:00:01.811Z,6.90
2023-04-16T12:02:40.401Z,6.30
2023-04-16T12:05:27.971Z,7.13
2023-04-16T12:07:58.135Z,5.97
2023-04-16T12:10:28.194Z,5.27
2023-04-16T12:12:56.497Z,5.67
2023-04-16T12:15:25.196Z,5.67
2023-04-16T12:18:08.209Z,6.30
2023-04-16T12:20:44.060Z,5.97
2023-04-16T12:23:24.947Z,7.00
2023-04-16T12:25:53.346Z,5.60
2023-04-16T12:28:32.673Z,5.93
2023-04-16T12:31:01.906Z,5.70
2023-04-16T12:33:31.715Z,6.47
2023-04-16T12:36:01.683Z,5.70
2023-04-16T12:38:32.352Z,6.60
2023-04-16T12:41:02.536Z,5.53
2023-04-16T12:43:31.131Z,5.87
2023-04-16T12:46:00.446Z,6.50
2023-04-16T12:48:29.453Z,6.70
2023-04-16T12:50:57.720Z,6.47
2023-04-16T12:53:26.303Z,5.60
2023-04-16T12:55:56.676Z,7.37
2023-04-16T12:58:25.044Z,6.93
2023-04-16T13:00:53.394Z,5.97
2023-04-16T13:03:22.242Z,6.80
2023-04-16T13:05:50.641Z,5.67
2023-04-16T13:08:19.639Z,5.87
2023-04-16T13:10:47.957Z,6.70
2023-04-16T13:13:17.926Z,5.60
2023-04-16T13:15:46.359Z,5.90
2023-04-16T13:18:14.913Z,5.73
2023-04-16T13:20:43.900Z,5.80
2023-04-16T13:23:12.249Z,5.97
2023-04-16T13:25:40.682Z,6.70
2023-04-16T13:28:09.138Z,5.40
2023-04-16T13:30:39.427Z,5.20
2023-04-16T13:33:08.016Z,6.27
2023-04-16T13:35:36.728Z,6.50
2023-04-16T13:38:06.002Z,6.27
2023-04-16T13:40:34.906Z,5.57
2023-04-16T13:43:05.011Z,6.87
2023-04-16T13:45:35.362Z,5.80
2023-04-16T13:48:05.664Z,6.90
2023-04-16T13:50:35.301Z,6.80
2023-04-16T13:53:03.867Z,6.60
2023-04-16T13:55:32.825Z,5.97
2023-04-16T13:58:01.523Z,6.17
2023-04-16T14:00:29.995Z,5.80
2023-04-16T14:02:58.837Z,7.03
2023-04-16T14:05:28.986Z,7.23
2023-04-16T14:07:57.588Z,6.77
2023-04-16T14:10:25.907Z,6.17
2023-04-16T14:12:54.523Z,7.03
2023-04-16T14:15:23.454Z,7.23
2023-04-16T14:17:52.625Z,7.10
2023-04-16T14:20:21.385Z,7.30
2023-04-16T14:22:52.067Z,6.00
2023-04-16T14:25:20.608Z,7.00
2023-04-16T14:27:49.107Z,7.67
2023-04-16T14:30:17.896Z,6.13
2023-04-16T14:32:46.677Z,8.33
2023-04-16T14:35:15.013Z,7.43
2023-04-16T14:37:46.590Z,6.87
2023-04-16T14:40:16.621Z,6.93
2023-04-16T14:42:45.203Z,6.90
2023-04-16T14:45:13.765Z,7.27
2023-04-16T14:47:46.244Z,7.90
2023-04-16T14:50:15.790Z,7.73
2023-04-16T14:52:44.412Z,7.80
2023-04-16T14:55:12.798Z,6.70
2023-04-16T14:57:42.999Z,7.60
2023-04-16T15:00:13.684Z,6.30
2023-04-16T15:02:42.604Z,7.40
2023-04-16T15:05:11.702Z,8.10
2023-04-16T15:07:40.476Z,8.20
2023-04-16T15:10:10.873Z,8.57
2023-04-16T15:12:39.535Z,8.53
2023-04-16T15:15:11.305Z,7.07
2023-04-16T15:17:39.716Z,7.13
2023-04-16T15:20:09.640Z,6.40
2023-04-16T15:22:38.311Z,6.10
2023-04-16T15:25:07.954Z,7.30
2023-04-16T15:27:36.616Z,6.63
2023-04-16T15:30:06.629Z,7.90
2023-04-16T15:32:36.544Z,7.80
2023-04-16T15:35:06.174Z,6.73
2023-04-16T15:37:35.025Z,7.50
2023-04-16T15:40:05.584Z,8.40
2023-04-16T15:42:34.104Z,7.80
2023-04-16T15:45:02.508Z,7.90
2023-04-16T15:47:31.043Z,8.07
2023-04-16T15:50:01.342Z,8.00
2023-04-16T15:52:29.923Z,8.33
2023-04-16T15:54:58.502Z,7.77
2023-04-16T15:57:27.021Z,8.30
2023-04-16T16:00:06.570Z,7.50
2023-04-16T16:02:36.076Z,8.63
2023-04-16T16:05:07.657Z,9.03
2023-04-16T16:07:37.756Z,8.00
2023-04-16T16:10:07.263Z,8.30
2023-04-16T16:12:35.694Z,7.60
2023-04-16T16:15:04.967Z,9.47
2023-04-16T16:17:33.316Z,8.73
2023-04-16T16:20:01.963Z,8.80
2023-04-16T16:22:31.815Z,10.23
2023-04-16T16:25:00.554Z,9.80
2023-04-16T16:27:29.194Z,9.60
2023-04-16T16:29:57.603Z,9.07
2023-04-16T16:32:25.911Z,10.23
2023-04-16T16:34:54.253Z,9.83
2023-04-16T16:37:22.746Z,9.30
2023-04-16T16:39:52.524Z,11.50
2023-04-16T16:42:20.941Z,9.60
2023-04-16T16:44:49.269Z,10.43
2023-04-16T16:47:17.646Z,11.30
2023-04-16T16:49:46.570Z,9.93
2023-04-16T16:52:15.077Z,10.43
2023-04-16T16:54:43.593Z,12.00
2023-04-16T16:57:13.917Z,11.00
2023-04-16T16:59:42.392Z,9.83
2023-04-16T17:02:11.149Z,10.30
2023-04-16T17:04:39.647Z,11.50
2023-04-16T17:07:08.008Z,13.00
2023-04-16T17:09:37.798Z,10.50
2023-04-16T17:12:06.733Z,11.07
2023-04-16T17:14:36.608Z,13.60
2023-04-16T17:17:04.991Z,11.50
2023-04-16T17:19:33.540Z,12.40
2023-04-16T17:22:01.844Z,11.63
2023-04-16T17:24:30.150Z,12.83
2023-04-16T17:26:58.636Z,14.67
2023-04-16T17:29:27.152Z,16.30
2023-04-16T17:31:57.083Z,17.80
2023-04-16T17:34:25.532Z,16.53
2023-04-16T17:36:54.102Z,16.23
2023-04-16T17:39:22.548Z,11.20
2023-04-16T17:41:54.315Z,16.03
2023-04-16T17:44:25.699Z,13.20
2023-04-16T17:46:54.022Z,14.07
2023-04-16T17:49:23.819Z,13.23
2023-04-16T17:51:52.145Z,13.70
2023-04-16T17:54:20.494Z,11.80
2023-04-16T17:56:48.880Z,10.77
2023-04-16T17:59:17.236Z,10.30
2023-04-16T18:01:45.878Z,9.73
2023-04-16T18:04:14.433Z,11.83
2023-04-16T18:06:44.365Z,10.17
2023-04-16T18:09:14.405Z,12.00
2023-04-16T18:11:42.845Z,9.97
2023-04-16T18:14:13.548Z,14.20
2023-04-16T18:16:41.992Z,18.27
2023-04-16T18:19:10.352Z,19.67
2023-04-16T18:21:38.792Z,20.90
2023-04-16T18:24:09.089Z,16.03
2023-04-16T18:26:37.732Z,22.53
2023-04-16T18:29:06.257Z,14.90
2023-04-16T18:31:34.739Z,24.23
2023-04-16T18:34:03.103Z,25.03
2023-04-16T18:36:31.467Z,20.03
2023-04-16T18:39:02.036Z,19.30
2023-04-16T18:41:32.452Z,17.60
2023-04-16T18:44:00.891Z,14.83
2023-04-16T18:46:29.180Z,13.27
2023-04-16T18:48:59.033Z,14.53
2023-04-16T18:51:27.457Z,14.43
2023-04-16T18:53:55.764Z,11.93
2023-04-16T18:56:24.061Z,11.93
2023-04-16T18:58:54.977Z,10.53
2023-04-16T19:01:23.494Z,13.60
2023-04-16T19:03:51.914Z,13.43
2023-04-16T19:06:20.289Z,17.20
2023-04-16T19:08:49.697Z,17.37
2023-04-16T19:11:18.020Z,10.30
2023-04-16T19:13:46.431Z,11.00
2023-04-16T19:16:17.126Z,9.93
2023-04-16T19:18:45.400Z,9.90
2023-04-16T19:21:13.733Z,10.43
2023-04-16T19:23:42.105Z,11.13
2023-04-16T19:26:10.520Z,9.87
2023-04-16T19:28:39.123Z,10.50
2023-04-16T19:31:07.666Z,9.60
2023-04-16T19:33:37.596Z,9.97
2023-04-16T19:36:06.414Z,9.07
2023-04-16T19:38:34.933Z,8.90
2023-04-16T19:41:03.279Z,9.17
2023-04-16T19:43:32.069Z,9.60
2023-04-16T19:46:00.556Z,11.40
2023-04-16T19:48:29.010Z,9.53
2023-04-16T19:51:02.822Z,9.00
2023-04-16T19:53:31.342Z,8.57
2023-04-16T19:55:59.648Z,9.77
2023-04-16T19:58:28.309Z,9.57
2023-04-16T20:00:56.626Z,10.40
2023-04-16T20:03:25.044Z,10.43
2023-04-16T20:05:53.419Z,9.37
2023-04-16T20:08:23.285Z,9.20
2023-04-16T20:10:54.660Z,9.17
2023-04-16T20:13:23.182Z,11.23
2023-04-16T20:15:53.399Z,10.77
2023-04-16T20:18:22.343Z,9.20
2023-04-16T20:20:50.901Z,9.40
2023-04-16T20:23:19.333Z,7.90
2023-04-16T20:25:49.127Z,9.23
2023-04-16T20:28:21.247Z,11.30
2023-04-16T20:30:50.996Z,12.57
2023-04-16T20:33:19.557Z,13.17
2023-04-16T20:35:49.192Z,14.57
2023-04-16T20:38:18.346Z,11.83
2023-04-16T20:40:47.269Z,10.50
2023-04-16T20:43:18.878Z,16.17
2023-04-16T20:45:47.333Z,12.37
2023-04-16T20:48:15.717Z,13.40
2023-04-16T20:50:44.082Z,18.77
2023-04-16T20:53:13.174Z,12.53
2023-04-16T20:55:41.529Z,10.37
2023-04-16T20:58:09.943Z,16.63
2023-04-16T21:00:39.765Z,18.20
2023-04-16T21:03:08.315Z,13.37
2023-04-16T21:05:37.036Z,12.30
2023-04-16T21:08:05.634Z,13.20
2023-04-16T21:10:35.175Z,17.83
2023-04-16T21:13:03.482Z,15.53
2023-04-16T21:15:33.881Z,10.10
2023-04-16T21:18:04.285Z,14.60
2023-04-16T21:20:32.712Z,15.00
2023-04-16T21:23:01.111Z,9.90
2023-04-16T21:25:29.940Z,8.93
2023-04-16T21:27:58.448Z,11.40
2023-04-16T21:30:27.212Z,13.07
2023-04-16T21:32:55.736Z,15.77
2023-04-16T21:35:25.593Z,11.10
2023-04-16T21:37:54.003Z,9.60
2023-04-16T21:40:22.477Z,8.90
2023-04-16T21:42:50.885Z,9.67
2023-04-16T21:45:19.592Z,10.30
2023-04-16T21:47:48.068Z,10.53
2023-04-16T21:50:16.583Z,11.07
2023-04-16T21:52:47.509Z,13.10
2023-04-16T21:55:16.019Z,9.50
2023-04-16T21:57:46.557Z,6.97
2023-04-16T22:00:15.512Z,7.50
2023-04-16T22:02:45.267Z,8.13
2023-04-16T22:05:13.724Z,7.10
2023-04-16T22:07:42.185Z,8.97
2023-04-16T22:10:14.858Z,7.67
2023-04-16T22:12:45.127Z,8.10
2023-04-16T22:15:14.607Z,8.87
2023-04-16T22:17:43.133Z,8.30
2023-04-16T22:20:13.281Z,8.17
2023-04-16T22:22:42.711Z,8.37
2023-04-16T22:25:12.780Z,7.97
2023-04-16T22:27:41.277Z,7.77
2023-04-16T22:30:10.800Z,8.87
2023-04-16T22:32:39.314Z,7.20
2023-04-16T22:35:08.278Z,7.20
2023-04-16T22:37:36.693Z,9.37
2023-04-16T22:40:08.292Z,9.20
2023-04-16T22:42:38.137Z,8.77
2023-04-16T22:45:07.392Z,7.70
2023-04-16T22:47:35.806Z,7.87
2023-04-16T22:50:04.288Z,8.80
2023-04-16T22:52:32.619Z,9.10
2023-04-16T22:55:01.014Z,7.90
2023-04-16T22:57:29.441Z,7.70
2023-04-16T22:59:59.248Z,7.60
2023-04-16T23:02:28.031Z,8.57
2023-04-16T23:04:56.639Z,7.83
2023-04-16T23:07:24.964Z,8.40
2023-04-16T23:09:53.763Z,9.27
2023-04-16T23:12:22.140Z,8.43
2023-04-16T23:14:51.387Z,9.23
2023-04-16T23:17:21.236Z,8.00
2023-04-16T23:19:49.617Z,7.23
2023-04-16T23:22:17.936Z,8.47
2023-04-16T23:24:46.534Z,7.60
2023-04-16T23:27:14.920Z,7.47
2023-04-16T23:29:43.390Z,7.30
2023-04-16T23:32:11.709Z,7.33
2023-04-16T23:34:41.788Z,7.67
2023-04-16T23:37:10.327Z,6.70
2023-04-16T23:39:38.771Z,6.93
2023-04-16T23:42:07.225Z,6.07
2023-04-16T23:44:35.608Z,6.50
2023-04-16T23:47:04.051Z,6.50
2023-04-16T23:49:32.430Z,6.30
2023-04-16T23:52:02.334Z,5.90
2023-04-16T23:54:30.888Z,5.93
2023-04-16T23:56:59.202Z,5.73
2023-04-16T23:59:27.689Z,5.90
